createdAt,value
2023-05-09T00:01:30.080Z,83.43
2023-05-09T00:03:59.912Z,83.43
2023-05-09T00:06:28.102Z,83.36
2023-05-09T00:08:56.636Z,83.32
2023-05-09T00:11:24.245Z,83.25
2023-05-09T00:13:53.381Z,83.27
2023-05-09T00:16:24.357Z,83.27
2023-05-09T00:18:52.840Z,83.36
2023-05-09T00:21:21.253Z,83.29
2023-05-09T00:23:49.117Z,83.16
2023-05-09T00:26:17.371Z,83.29
2023-05-09T00:28:45.353Z,83.30
2023-05-09T00:31:13.583Z,83.18
2023-05-09T00:33:41.381Z,83.33
2023-05-09T00:36:09.174Z,83.27
2023-05-09T00:38:37.056Z,83.43
2023-05-09T00:41:05.005Z,83.39
2023-05-09T00:43:33.156Z,83.27
2023-05-09T00:46:01.294Z,83.13
2023-05-09T00:48:29.085Z,83.15
2023-05-09T00:50:57.010Z,83.17
2023-05-09T00:53:25.985Z,82.99
2023-05-09T00:55:56.764Z,83.08
2023-05-09T00:58:25.508Z,82.84
2023-05-09T01:00:53.378Z,82.54
2023-05-09T01:03:21.390Z,82.15
2023-05-09T01:06:13.086Z,82.29
2023-05-09T01:09:08.195Z,82.59
2023-05-09T01:11:44.274Z,82.71
2023-05-09T01:14:14.958Z,82.68
2023-05-09T01:16:56.539Z,82.72
2023-05-09T01:19:52.363Z,82.65
2023-05-09T01:22:36.178Z,82.81
2023-05-09T01:25:05.584Z,82.83
2023-05-09T01:27:44.676Z,82.73
2023-05-09T01:30:17.400Z,82.66
2023-05-09T01:32:51.540Z,82.39
2023-05-09T01:35:26.078Z,82.43
2023-05-09T01:37:56.789Z,82.35
2023-05-09T01:40:30.539Z,82.14
2023-05-09T01:43:06.050Z,82.32
2023-05-09T01:45:37.206Z,82.45
2023-05-09T01:48:07.300Z,82.40
2023-05-09T01:50:37.783Z,82.36
2023-05-09T01:53:08.410Z,82.38
2023-05-09T01:55:39.115Z,82.56
2023-05-09T01:58:08.339Z,82.50
2023-05-09T02:00:38.237Z,82.42
2023-05-09T02:03:07.406Z,82.22
2023-05-09T02:05:37.322Z,82.44
2023-05-09T02:08:05.794Z,82.45
2023-05-09T02:10:35.967Z,82.51
2023-05-09T02:13:06.070Z,82.55
2023-05-09T02:15:34.964Z,82.58
2023-05-09T02:18:02.929Z,82.62
2023-05-09T02:20:31.269Z,82.64
2023-05-09T02:22:59.236Z,82.67
2023-05-09T02:25:27.250Z,82.52
2023-05-09T02:27:58.373Z,82.49
2023-05-09T02:30:31.211Z,82.54
2023-05-09T02:33:05.097Z,82.48
2023-05-09T02:35:34.643Z,82.54
2023-05-09T02:38:03.689Z,82.50
2023-05-09T02:40:33.491Z,82.50
2023-05-09T02:43:01.192Z,82.42
2023-05-09T02:45:29.016Z,82.41
2023-05-09T02:47:56.771Z,82.38
2023-05-09T02:50:25.219Z,82.38
2023-05-09T02:52:53.740Z,82.22
2023-05-09T02:55:21.408Z,82.24
2023-05-09T02:57:51.978Z,82.33
2023-05-09T03:00:29.056Z,82.50
2023-05-09T03:02:57.189Z,82.20
2023-05-09T03:05:25.226Z,82.22
2023-05-09T03:07:53.123Z,82.47
2023-05-09T03:10:21.002Z,82.29
2023-05-09T03:12:48.839Z,82.25
2023-05-09T03:15:16.587Z,82.27
2023-05-09T03:17:48.482Z,82.35
2023-05-09T03:20:16.340Z,82.46
2023-05-09T03:22:43.980Z,82.57
2023-05-09T03:25:13.288Z,82.64
2023-05-09T03:27:41.133Z,82.74
2023-05-09T03:30:13.189Z,82.79
2023-05-09T03:32:42.306Z,83.03
2023-05-09T03:35:09.965Z,83.20
2023-05-09T03:37:38.276Z,83.29
2023-05-09T03:40:09.077Z,83.35
2023-05-09T03:42:43.901Z,83.32
2023-05-09T03:45:12.414Z,83.31
2023-05-09T03:47:40.617Z,83.41
2023-05-09T03:50:09.377Z,83.35
2023-05-09T03:52:38.186Z,83.23
2023-05-09T03:55:07.739Z,83.32
2023-05-09T03:57:37.683Z,83.57
2023-05-09T04:00:06.865Z,83.77
2023-05-09T04:02:42.356Z,83.85
2023-05-09T04:05:18.271Z,83.86
2023-05-09T04:07:46.662Z,83.92
2023-05-09T04:10:16.211Z,83.86
2023-05-09T04:12:44.276Z,83.69
2023-05-09T04:15:12.861Z,83.95
2023-05-09T04:17:41.031Z,83.61
2023-05-09T04:20:10.746Z,83.44
2023-05-09T04:22:38.571Z,83.21
2023-05-09T04:25:07.553Z,83.34
2023-05-09T04:27:35.851Z,83.20
2023-05-09T04:30:04.358Z,83.08
2023-05-09T04:32:32.499Z,83.05
2023-05-09T04:35:00.699Z,83.02
2023-05-09T04:37:33.262Z,83.01
2023-05-09T04:40:03.072Z,83.13
2023-05-09T04:42:38.887Z,83.10
2023-05-09T04:45:07.709Z,83.04
2023-05-09T04:47:38.023Z,83.16
2023-05-09T04:50:06.196Z,83.25
2023-05-09T04:52:34.045Z,83.15
2023-05-09T04:55:02.069Z,83.08
2023-05-09T04:57:35.473Z,83.26
2023-05-09T05:00:07.771Z,83.18
2023-05-09T05:02:36.959Z,83.19
2023-05-09T05:05:11.478Z,83.15
2023-05-09T05:07:42.326Z,82.87
2023-05-09T05:10:12.486Z,82.88
2023-05-09T05:12:43.295Z,82.61
2023-05-09T05:15:14.085Z,82.63
2023-05-09T05:17:45.049Z,82.49
2023-05-09T05:20:13.084Z,82.41
2023-05-09T05:22:45.910Z,82.00
2023-05-09T05:25:14.040Z,80.72
2023-05-09T05:27:43.180Z,80.40
2023-05-09T05:30:15.576Z,80.34
2023-05-09T05:32:44.607Z,80.23
2023-05-09T05:35:14.171Z,80.28
2023-05-09T05:37:43.782Z,80.15
2023-05-09T05:40:12.434Z,79.76
2023-05-09T05:42:44.570Z,79.78
2023-05-09T05:45:12.762Z,79.41
2023-05-09T05:47:44.451Z,79.27
2023-05-09T05:50:13.418Z,79.40
2023-05-09T05:52:42.335Z,79.58
2023-05-09T05:55:13.948Z,79.41
2023-05-09T05:57:42.681Z,79.37
2023-05-09T06:00:15.292Z,79.36
2023-05-09T06:02:50.462Z,79.16
2023-05-09T06:05:26.709Z,78.60
2023-05-09T06:07:54.502Z,78.50
2023-05-09T06:10:22.725Z,77.77
2023-05-09T06:12:50.725Z,76.66
2023-05-09T06:15:18.781Z,75.98
2023-05-09T06:17:49.835Z,75.93
2023-05-09T06:20:17.693Z,76.24
2023-05-09T06:22:45.611Z,74.53
2023-05-09T06:25:13.505Z,74.78
2023-05-09T06:27:42.737Z,73.22
2023-05-09T06:30:24.665Z,74.15
2023-05-09T06:32:54.248Z,74.00
2023-05-09T06:35:22.227Z,74.14
2023-05-09T06:37:50.727Z,73.49
2023-05-09T06:40:18.694Z,72.82
2023-05-09T06:42:46.600Z,72.13
2023-05-09T06:45:15.993Z,72.41
2023-05-09T06:47:44.080Z,71.92
2023-05-09T06:50:12.066Z,71.81
2023-05-09T06:52:40.121Z,71.91
2023-05-09T06:55:08.769Z,70.21
2023-05-09T06:57:38.127Z,70.24
2023-05-09T07:00:07.111Z,71.05
2023-05-09T07:02:34.985Z,71.46
2023-05-09T07:05:03.055Z,69.89
2023-05-09T07:07:30.928Z,70.73
2023-05-09T07:10:10.543Z,70.37
2023-05-09T07:12:40.526Z,69.68
2023-05-09T07:15:09.349Z,67.38
2023-05-09T07:17:37.353Z,69.24
2023-05-09T07:20:06.004Z,68.81
2023-05-09T07:22:36.401Z,66.96
2023-05-09T07:25:07.056Z,67.74
2023-05-09T07:27:34.943Z,67.06
2023-05-09T07:30:07.059Z,67.26
2023-05-09T07:32:35.152Z,65.42
2023-05-09T07:35:03.593Z,66.48
2023-05-09T07:37:31.583Z,67.35
2023-05-09T07:39:59.398Z,65.53
2023-05-09T07:42:27.068Z,65.05
2023-05-09T07:44:55.079Z,63.05
2023-05-09T07:47:23.573Z,64.71
2023-05-09T07:49:51.957Z,65.23
2023-05-09T07:52:19.636Z,65.02
2023-05-09T07:54:47.505Z,67.02
2023-05-09T07:57:16.191Z,67.75
2023-05-09T07:59:44.227Z,66.89
2023-05-09T08:02:12.000Z,66.18
2023-05-09T08:04:41.646Z,67.37
2023-05-09T08:07:09.669Z,64.20
2023-05-09T08:09:37.725Z,65.45
2023-05-09T08:12:06.200Z,64.66
2023-05-09T08:14:34.078Z,63.48
2023-05-09T08:17:02.024Z,65.29
2023-05-09T08:19:29.798Z,63.89
2023-05-09T08:21:57.527Z,64.48
2023-05-09T08:24:25.368Z,64.69
2023-05-09T08:26:53.309Z,61.47
2023-05-09T08:29:21.314Z,62.28
2023-05-09T08:31:49.149Z,62.86
2023-05-09T08:34:16.977Z,61.65
2023-05-09T08:36:47.111Z,62.43
2023-05-09T08:39:14.991Z,62.70
2023-05-09T08:41:43.516Z,60.00
2023-05-09T08:44:12.425Z,59.04
2023-05-09T08:46:44.738Z,60.19
2023-05-09T08:49:13.099Z,61.74
2023-05-09T08:51:41.406Z,64.08
2023-05-09T08:54:09.828Z,65.17
2023-05-09T08:56:42.032Z,65.23
2023-05-09T08:59:10.926Z,64.99
2023-05-09T09:01:39.077Z,62.84
2023-05-09T09:04:08.787Z,65.34
2023-05-09T09:06:38.994Z,64.33
2023-05-09T09:09:11.287Z,63.19
2023-05-09T09:11:42.013Z,64.76
2023-05-09T09:14:14.030Z,64.01
2023-05-09T09:16:44.715Z,64.41
2023-05-09T09:19:16.624Z,64.31
2023-05-09T09:21:51.272Z,63.46
2023-05-09T09:24:23.666Z,64.97
2023-05-09T09:26:52.308Z,64.22
2023-05-09T09:29:21.199Z,63.98
2023-05-09T09:31:52.635Z,64.75
2023-05-09T09:34:23.235Z,63.85
2023-05-09T09:36:51.736Z,62.62
2023-05-09T09:39:19.557Z,62.42
2023-05-09T09:41:47.285Z,60.78
2023-05-09T09:44:17.685Z,61.08
2023-05-09T09:46:55.952Z,59.97
2023-05-09T09:49:26.283Z,57.88
2023-05-09T09:51:58.991Z,58.67
2023-05-09T09:54:32.025Z,59.73
2023-05-09T09:56:59.911Z,60.18
2023-05-09T09:59:28.086Z,62.03
2023-05-09T10:02:09.549Z,62.88
2023-05-09T10:04:39.475Z,62.42
2023-05-09T10:07:13.696Z,61.66
2023-05-09T10:09:44.119Z,63.83
2023-05-09T10:12:14.939Z,61.70
2023-05-09T10:14:43.706Z,64.26
2023-05-09T10:17:15.173Z,62.04
2023-05-09T10:19:49.909Z,62.94
2023-05-09T10:22:19.881Z,63.15
2023-05-09T10:25:13.386Z,64.94
2023-05-09T10:27:46.502Z,65.48
2023-05-09T10:30:14.413Z,66.86
2023-05-09T10:32:52.275Z,66.44
2023-05-09T10:35:25.044Z,65.12
2023-05-09T10:37:57.534Z,66.21
2023-05-09T10:40:25.890Z,63.85
2023-05-09T10:42:53.630Z,64.25
2023-05-09T10:45:24.306Z,65.55
2023-05-09T10:47:54.161Z,66.51
2023-05-09T10:50:22.529Z,66.85
2023-05-09T10:53:11.650Z,65.80
2023-05-09T10:55:55.476Z,65.90
2023-05-09T10:58:40.955Z,66.79
2023-05-09T11:01:08.830Z,68.72
2023-05-09T11:03:56.273Z,70.08
2023-05-09T11:06:46.598Z,70.69
2023-05-09T11:09:34.651Z,68.63
2023-05-09T11:12:05.788Z,69.12
2023-05-09T11:14:39.641Z,69.73
2023-05-09T11:17:15.499Z,70.56
2023-05-09T11:19:46.249Z,69.92
2023-05-09T11:22:17.875Z,70.20
2023-05-09T11:24:50.881Z,70.55
2023-05-09T11:27:22.768Z,70.62
2023-05-09T11:29:56.347Z,71.40
2023-05-09T11:32:32.945Z,71.63
2023-05-09T11:35:27.666Z,71.33
2023-05-09T11:38:02.567Z,70.66
2023-05-09T11:40:31.776Z,70.98
2023-05-09T11:43:01.312Z,70.27
2023-05-09T11:45:33.682Z,71.10
2023-05-09T11:48:02.167Z,72.29
2023-05-09T11:50:30.379Z,71.11
2023-05-09T11:52:58.668Z,70.94
2023-05-09T11:55:29.928Z,71.39
2023-05-09T11:57:59.022Z,71.76
2023-05-09T12:00:27.474Z,71.45
2023-05-09T12:02:55.582Z,72.51
2023-05-09T12:05:24.013Z,73.55
2023-05-09T12:07:52.923Z,73.70
2023-05-09T12:10:23.192Z,74.49
2023-05-09T12:12:53.156Z,75.12
2023-05-09T12:15:22.094Z,75.43
2023-05-09T12:18:06.246Z,76.40
2023-05-09T12:20:46.126Z,75.38
2023-05-09T12:23:15.099Z,75.13
2023-05-09T12:25:53.146Z,75.93
2023-05-09T12:28:25.437Z,75.34
2023-05-09T12:30:54.398Z,75.64
2023-05-09T12:33:23.583Z,76.81
2023-05-09T12:36:11.476Z,76.85
2023-05-09T12:38:39.921Z,77.29
2023-05-09T12:43:44.043Z,77.50
2023-05-09T12:46:11.735Z,77.55
2023-05-09T12:48:40.215Z,77.87
2023-05-09T12:51:08.650Z,78.25
2023-05-09T12:53:42.656Z,78.61
2023-05-09T12:56:19.158Z,77.92
2023-05-09T12:58:51.760Z,78.79
2023-05-09T13:01:20.849Z,78.09
2023-05-09T13:04:04.103Z,78.21
2023-05-09T13:06:32.554Z,78.27
2023-05-09T13:09:02.460Z,78.36
2023-05-09T13:11:30.845Z,78.60
2023-05-09T13:14:00.165Z,77.81
2023-05-09T13:16:28.166Z,78.36
2023-05-09T13:18:55.928Z,78.44
2023-05-09T13:21:23.761Z,78.56
2023-05-09T13:23:52.297Z,79.53
2023-05-09T13:26:20.106Z,78.74
2023-05-09T13:28:48.107Z,78.71
2023-05-09T13:31:16.452Z,78.81
2023-05-09T13:33:44.353Z,78.78
2023-05-09T13:36:12.134Z,78.40
2023-05-09T13:38:40.886Z,79.00
2023-05-09T13:41:09.211Z,78.63
2023-05-09T13:43:41.091Z,78.83
2023-05-09T13:46:08.940Z,79.37
2023-05-09T13:48:37.785Z,79.48
2023-05-09T13:51:07.676Z,79.14
2023-05-09T13:53:38.098Z,79.76
2023-05-09T13:56:09.405Z,80.11
2023-05-09T13:58:37.627Z,79.96
2023-05-09T14:01:05.802Z,79.22
2023-05-09T14:03:33.866Z,79.90
2023-05-09T14:06:01.701Z,80.10
2023-05-09T14:08:29.757Z,79.98
2023-05-09T14:10:57.533Z,80.52
2023-05-09T14:13:25.530Z,81.11
2023-05-09T14:15:53.348Z,81.42
2023-05-09T14:18:21.446Z,81.64
2023-05-09T14:20:49.272Z,81.71
2023-05-09T14:23:17.133Z,81.72
2023-05-09T14:25:45.188Z,82.06
2023-05-09T14:28:13.313Z,82.33
2023-05-09T14:30:41.029Z,82.95
2023-05-09T14:33:08.762Z,82.69
2023-05-09T14:35:39.646Z,83.11
2023-05-09T14:38:08.952Z,83.69
2023-05-09T14:40:37.184Z,83.48
2023-05-09T14:43:06.004Z,84.25
2023-05-09T14:45:34.286Z,84.10
2023-05-09T14:48:05.524Z,84.28
2023-05-09T14:50:33.532Z,84.53
2023-05-09T14:53:02.067Z,84.15
2023-05-09T14:55:31.548Z,84.40
2023-05-09T14:57:59.456Z,84.72
2023-05-09T15:00:28.638Z,84.60
2023-05-09T15:02:56.939Z,84.64
2023-05-09T15:05:25.165Z,84.69
2023-05-09T15:07:52.836Z,84.79
2023-05-09T15:10:20.894Z,84.54
2023-05-09T15:12:48.711Z,84.62
2023-05-09T15:15:18.709Z,84.66
2023-05-09T15:17:47.095Z,84.34
2023-05-09T15:20:15.951Z,84.54
2023-05-09T15:22:44.796Z,84.48
2023-05-09T15:25:12.756Z,84.43
2023-05-09T15:27:40.575Z,84.50
2023-05-09T15:30:10.170Z,84.38
2023-05-09T15:32:39.882Z,84.42
2023-05-09T15:35:08.545Z,84.32
2023-05-09T15:37:36.957Z,84.21
2023-05-09T15:40:05.434Z,84.05
2023-05-09T15:42:33.177Z,84.00
2023-05-09T15:45:01.211Z,83.71
2023-05-09T15:47:28.929Z,83.64
2023-05-09T15:49:56.892Z,83.80
2023-05-09T15:52:24.640Z,83.73
2023-05-09T15:54:52.505Z,83.86
2023-05-09T15:57:20.202Z,84.00
2023-05-09T15:59:47.884Z,83.96
2023-05-09T16:02:15.488Z,83.86
2023-05-09T16:04:44.065Z,83.69
2023-05-09T16:07:12.097Z,83.30
2023-05-09T16:09:39.812Z,83.44
2023-05-09T16:12:07.805Z,83.61
2023-05-09T16:14:36.095Z,83.70
2023-05-09T16:17:03.926Z,83.86
2023-05-09T16:19:32.702Z,83.91
2023-05-09T16:22:02.483Z,84.00
2023-05-09T16:24:32.077Z,83.77
2023-05-09T16:27:00.105Z,83.69
2023-05-09T16:29:28.594Z,83.80
2023-05-09T16:31:56.258Z,83.92
2023-05-09T16:34:24.232Z,83.99
2023-05-09T16:36:52.419Z,83.90
2023-05-09T16:39:20.447Z,83.98
2023-05-09T16:41:48.281Z,83.60
2023-05-09T16:44:16.380Z,83.45
2023-05-09T16:46:44.243Z,82.50
2023-05-09T16:49:12.173Z,82.67
2023-05-09T16:51:39.900Z,82.52
2023-05-09T16:54:08.272Z,82.39
2023-05-09T16:56:36.962Z,82.27
2023-05-09T16:59:05.022Z,82.83
2023-05-09T17:01:33.082Z,82.92
2023-05-09T17:04:01.767Z,82.95
2023-05-09T17:06:29.539Z,83.14
2023-05-09T17:08:57.839Z,83.16
2023-05-09T17:11:25.484Z,83.18
2023-05-09T17:13:53.340Z,83.05
2023-05-09T17:16:21.089Z,83.45
2023-05-09T17:18:48.856Z,83.40
2023-05-09T17:21:17.126Z,83.24
2023-05-09T17:23:44.836Z,82.95
2023-05-09T17:26:12.717Z,82.88
2023-05-09T17:28:40.507Z,83.14
2023-05-09T17:31:08.270Z,83.29
2023-05-09T17:33:36.271Z,83.16
2023-05-09T17:36:04.000Z,83.50
2023-05-09T17:38:32.510Z,83.45
2023-05-09T17:41:00.792Z,83.63
2023-05-09T17:43:28.729Z,83.54
2023-05-09T17:45:56.406Z,83.59
2023-05-09T17:48:24.441Z,84.08
2023-05-09T17:50:52.830Z,84.33
2023-05-09T17:53:20.522Z,84.48
2023-05-09T17:55:48.256Z,84.45
2023-05-09T17:58:15.948Z,84.45
2023-05-09T18:00:44.703Z,83.89
2023-05-09T18:03:12.387Z,84.16
2023-05-09T18:05:40.639Z,84.54
2023-05-09T18:08:08.495Z,84.00
2023-05-09T18:10:36.386Z,84.27
2023-05-09T18:13:04.119Z,84.30
2023-05-09T18:15:38.124Z,84.41
2023-05-09T18:18:07.360Z,84.70
2023-05-09T18:20:36.231Z,84.56
2023-05-09T18:23:04.379Z,84.35
2023-05-09T18:25:32.390Z,84.45
2023-05-09T18:28:02.639Z,84.57
2023-05-09T18:30:30.398Z,84.63
2023-05-09T18:33:00.431Z,84.71
2023-05-09T18:35:28.246Z,84.63
2023-05-09T18:37:56.017Z,84.62
2023-05-09T18:40:23.823Z,84.66
2023-05-09T18:42:51.563Z,84.58
2023-05-09T18:45:19.423Z,84.73
2023-05-09T18:47:47.333Z,84.65
2023-05-09T18:50:15.364Z,84.60
2023-05-09T18:52:44.439Z,84.48
2023-05-09T18:55:14.318Z,84.63
2023-05-09T18:57:42.104Z,84.75
2023-05-09T19:00:10.219Z,84.51
2023-05-09T19:02:38.327Z,84.67
2023-05-09T19:05:08.207Z,84.69
2023-05-09T19:07:37.342Z,84.66
2023-05-09T19:10:08.354Z,84.99
2023-05-09T19:12:36.109Z,84.60
2023-05-09T19:15:04.252Z,84.75
2023-05-09T19:17:32.142Z,84.82
2023-05-09T19:20:00.049Z,84.87
2023-05-09T19:22:28.024Z,84.75
2023-05-09T19:24:58.715Z,85.09
2023-05-09T19:27:26.421Z,85.06
2023-05-09T19:29:54.210Z,85.22
2023-05-09T19:32:22.248Z,84.95
2023-05-09T19:34:53.405Z,85.06
2023-05-09T19:37:21.255Z,85.00
2023-05-09T19:39:48.902Z,84.98
2023-05-09T19:42:20.054Z,84.85
2023-05-09T19:44:48.244Z,84.90
2023-05-09T19:47:20.064Z,85.40
2023-05-09T19:49:48.161Z,85.07
2023-05-09T19:52:15.902Z,85.10
2023-05-09T19:54:43.806Z,85.09
2023-05-09T19:57:12.552Z,85.22
2023-05-09T19:59:40.361Z,85.20
2023-05-09T20:02:08.166Z,85.25
2023-05-09T20:04:37.322Z,85.40
2023-05-09T20:07:06.028Z,85.15
2023-05-09T20:09:34.570Z,85.38
2023-05-09T20:12:03.761Z,85.26
2023-05-09T20:14:32.267Z,85.20
2023-05-09T20:17:00.061Z,85.07
2023-05-09T20:19:27.920Z,85.02
2023-05-09T20:21:56.116Z,85.14
2023-05-09T20:24:24.134Z,85.07
2023-05-09T20:26:52.423Z,85.12
2023-05-09T20:29:20.678Z,85.07
2023-05-09T20:31:49.610Z,85.10
2023-05-09T20:34:18.278Z,85.16
2023-05-09T20:36:53.747Z,85.36
2023-05-09T20:39:23.164Z,85.33
2023-05-09T20:41:52.213Z,85.37
2023-05-09T20:44:20.023Z,85.35
2023-05-09T20:46:48.062Z,85.18
2023-05-09T20:49:16.594Z,85.24
2023-05-09T20:51:44.489Z,85.23
2023-05-09T20:54:12.711Z,85.11
2023-05-09T20:56:40.877Z,85.27
2023-05-09T20:59:08.719Z,85.29
2023-05-09T21:01:37.023Z,85.36
2023-05-09T21:04:06.033Z,85.28
2023-05-09T21:06:34.929Z,85.17
2023-05-09T21:09:03.356Z,85.34
2023-05-09T21:11:31.477Z,85.30
2023-05-09T21:13:59.429Z,85.44
2023-05-09T21:16:30.661Z,85.54
2023-05-09T21:19:02.486Z,85.56
2023-05-09T21:21:31.631Z,85.61
2023-05-09T21:24:03.211Z,85.56
2023-05-09T21:26:31.462Z,85.62
2023-05-09T21:28:59.187Z,85.45
2023-05-09T21:31:26.975Z,85.64
2023-05-09T21:33:54.745Z,85.33
2023-05-09T21:36:22.481Z,85.51
2023-05-09T21:38:50.317Z,85.47
2023-05-09T21:41:18.363Z,85.56
2023-05-09T21:43:46.130Z,85.45
2023-05-09T21:46:13.926Z,85.35
2023-05-09T21:48:41.743Z,85.29
2023-05-09T21:51:09.723Z,85.32
2023-05-09T21:53:40.742Z,85.38
2023-05-09T21:56:09.036Z,85.43
2023-05-09T21:58:37.641Z,85.13
2023-05-09T22:01:06.667Z,85.19
2023-05-09T22:03:35.123Z,85.31
2023-05-09T22:06:03.215Z,85.34
2023-05-09T22:08:31.000Z,85.42
2023-05-09T22:10:58.788Z,85.32
2023-05-09T22:13:28.841Z,85.24
2023-05-09T22:15:56.714Z,85.49
2023-05-09T22:18:24.342Z,85.46
2023-05-09T22:20:52.064Z,85.63
2023-05-09T22:23:19.720Z,85.52
2023-05-09T22:25:47.324Z,85.50
2023-05-09T22:28:15.190Z,85.46
2023-05-09T22:30:42.876Z,85.53
2023-05-09T22:33:10.573Z,85.50
2023-05-09T22:35:38.394Z,85.66
2023-05-09T22:38:06.763Z,85.68
2023-05-09T22:40:34.799Z,85.50
2023-05-09T22:43:02.575Z,85.45
2023-05-09T22:45:30.621Z,85.51
2023-05-09T22:47:58.382Z,85.41
2023-05-09T22:50:26.221Z,85.22
2023-05-09T22:52:53.938Z,85.29
2023-05-09T22:55:22.079Z,85.28
2023-05-09T22:57:49.712Z,85.40
2023-05-09T23:00:18.326Z,85.43
2023-05-09T23:02:46.462Z,85.34
2023-05-09T23:05:14.403Z,85.44
2023-05-09T23:07:42.307Z,85.37
2023-05-09T23:10:11.310Z,85.32
2023-05-09T23:12:39.098Z,85.50
2023-05-09T23:15:07.587Z,85.62
2023-05-09T23:17:35.793Z,85.67
2023-05-09T23:20:04.263Z,85.63
2023-05-09T23:22:32.094Z,85.73
2023-05-09T23:25:01.079Z,85.77
2023-05-09T23:27:31.272Z,85.74
2023-05-09T23:29:58.967Z,85.89
2023-05-09T23:32:26.883Z,85.99
2023-05-09T23:34:54.572Z,86.12
2023-05-09T23:37:22.403Z,86.20
2023-05-09T23:39:50.110Z,86.34
2023-05-09T23:42:17.819Z,86.35
2023-05-09T23:44:45.589Z,86.23
2023-05-09T23:47:13.206Z,86.34
2023-05-09T23:49:41.787Z,86.63
2023-05-09T23:52:09.980Z,86.73
2023-05-09T23:54:39.886Z,86.80
2023-05-09T23:57:07.808Z,86.90
2023-05-09T23:59:35.712Z,87.06
